Time;durP1;ratioP1;P1;durP2;ratioP2;P2;SDS_P1;SDS_P2;PMS_P1;PMS_P2;Temp;Humidity;BMP_temperature;BMP_pressure;BME280_temperature;BME280_humidity;BME280_pressure;Samples;Min_cycle;Max_cycle;Signal;HPM_P1;HPM_P2
2021/05/13 00:01:04;;;;;;;9.02;3.25;;;7.50;99.90;;;;;;6307156;28;20106;-75
2021/05/13 00:04:05;;;;;;;3.92;3.08;;;7.50;99.90;;;;;;6307109;28;20029;-76
2021/05/13 00:07:08;;;;;;;3.65;3.08;;;7.50;99.90;;;;;;6307481;28;20036;-75
2021/05/13 00:10:13;;;;;;;5.72;3.20;;;7.50;99.90;;;;;;6306635;28;20064;-76
2021/05/13 00:13:15;;;;;;;3.75;2.67;;;7.50;99.90;;;;;;6305567;28;20040;-76
2021/05/13 00:16:16;;;;;;;4.97;3.65;;;7.40;99.90;;;;;;6300920;28;20041;-76
2021/05/13 00:19:18;;;;;;;3.90;3.13;;;7.40;99.90;;;;;;6287917;28;20052;-75
2021/05/13 00:22:22;;;;;;;7.55;3.80;;;7.30;99.90;;;;;;6275432;28;20080;-75
2021/05/13 00:25:24;;;;;;;3.10;2.85;;;7.20;99.90;;;;;;6276071;28;20721;-75
2021/05/13 00:28:26;;;;;;;8.50;3.72;;;7.20;99.90;;;;;;6275618;28;20456;-75
2021/05/13 00:31:27;;;;;;;4.80;3.08;;;7.20;99.90;;;;;;6275429;28;20084;-75
2021/05/13 00:34:28;;;;;;;2.83;2.63;;;7.20;99.90;;;;;;6274601;28;20045;-75
2021/05/13 00:37:30;;;;;;;3.20;2.95;;;7.10;99.90;;;;;;6274322;28;20045;-75
2021/05/13 00:40:33;;;;;;;3.67;3.03;;;7.10;99.90;;;;;;6274707;28;20132;-75
2021/05/13 00:43:34;;;;;;;5.78;3.75;;;7.00;99.90;;;;;;6275079;28;20060;-76
2021/05/13 00:46:36;;;;;;;4.03;3.42;;;6.90;99.90;;;;;;6274823;28;20095;-75
2021/05/13 00:49:37;;;;;;;4.10;3.53;;;6.90;99.90;;;;;;6274188;28;20045;-75
2021/05/13 00:52:39;;;;;;;4.18;3.60;;;6.90;99.90;;;;;;6273891;28;20122;-75
2021/05/13 00:55:41;;;;;;;3.03;2.75;;;7.00;99.90;;;;;;6274505;28;20183;-75
2021/05/13 00:58:45;;;;;;;7.78;3.35;;;7.00;99.90;;;;;;6274333;28;20119;-75
2021/05/13 01:01:49;;;;;;;3.63;2.70;;;7.00;99.90;;;;;;6274694;28;20075;-75
2021/05/13 01:04:50;;;;;;;3.78;2.67;;;7.10;99.90;;;;;;6273726;28;20461;-76
2021/05/13 01:07:53;;;;;;;3.30;2.75;;;7.10;99.90;;;;;;6273238;28;20076;-76
2021/05/13 01:10:55;;;;;;;3.30;3.00;;;7.00;99.90;;;;;;6274728;28;20152;-75
2021/05/13 01:13:59;;;;;;;7.97;3.17;;;7.00;99.90;;;;;;6273281;28;20080;-76
2021/05/13 01:17:14;;;;;;;6.93;4.95;;;6.90;99.90;;;;;;6273123;28;20410;-76
2021/05/13 01:20:15;;;;;;;5.88;2.88;;;6.80;99.90;;;;;;6273492;28;20045;-76
2021/05/13 01:23:20;;;;;;;6.18;3.10;;;6.70;99.90;;;;;;6273705;28;20182;-75
2021/05/13 01:26:21;;;;;;;7.22;3.03;;;6.80;99.90;;;;;;6272888;28;20696;-76
2021/05/13 01:29:25;;;;;;;10.18;2.47;;;6.70;99.90;;;;;;6272479;28;20124;-76
2021/05/13 01:32:26;;;;;;;3.22;2.97;;;6.70;99.90;;;;;;6273224;28;20083;-76
2021/05/13 01:35:28;;;;;;;6.18;3.30;;;6.60;99.90;;;;;;6272724;28;20163;-76
2021/05/13 01:38:30;;;;;;;6.05;3.22;;;6.60;99.90;;;;;;6272436;28;20052;-76
2021/05/13 01:41:32;;;;;;;4.95;2.97;;;6.50;99.90;;;;;;6272417;28;20191;-75
2021/05/13 01:44:34;;;;;;;6.07;3.75;;;6.40;99.90;;;;;;6272416;28;20106;-75
2021/05/13 01:47:36;;;;;;;2.80;2.47;;;6.40;99.90;;;;;;6272901;28;20135;-75
2021/05/13 01:50:37;;;;;;;2.83;2.55;;;6.40;99.90;;;;;;6272312;28;20045;-75
2021/05/13 01:53:41;;;;;;;6.85;2.90;;;6.30;99.90;;;;;;6271978;28;20525;-76
2021/05/13 01:56:42;;;;;;;3.83;2.65;;;6.40;99.90;;;;;;6272481;28;20037;-76
2021/05/13 01:59:44;;;;;;;4.65;2.83;;;6.30;99.90;;;;;;6272630;28;20131;-75
2021/05/13 02:02:48;;;;;;;3.38;3.08;;;6.20;99.90;;;;;;6281402;28;20072;-76
2021/05/13 02:05:49;;;;;;;4.22;3.92;;;6.10;99.90;;;;;;6272057;28;20072;-76
2021/05/13 02:08:51;;;;;;;3.00;2.80;;;6.10;99.90;;;;;;6271766;28;20103;-76
2021/05/13 02:11:53;;;;;;;6.60;3.38;;;6.10;99.90;;;;;;6272393;28;20136;-75
2021/05/13 02:14:54;;;;;;;6.80;4.28;;;6.10;99.90;;;;;;6271578;28;20076;-76
2021/05/13 02:17:55;;;;;;;3.00;2.25;;;6.00;99.90;;;;;;6271087;28;20146;-76
2021/05/13 02:20:56;;;;;;;4.20;3.33;;;6.00;99.90;;;;;;6271147;28;20127;-76
2021/05/13 02:23:59;;;;;;;5.38;3.72;;;6.00;99.90;;;;;;6271656;28;20049;-75
2021/05/13 02:27:00;;;;;;;6.25;3.33;;;6.00;99.90;;;;;;6272139;28;20142;-75
2021/05/13 02:30:01;;;;;;;4.05;2.80;;;6.00;99.90;;;;;;6271362;28;20128;-75
2021/05/13 02:33:03;;;;;;;5.78;3.38;;;6.00;99.90;;;;;;6271703;28;20052;-76
2021/05/13 02:36:05;;;;;;;3.58;3.03;;;6.10;99.90;;;;;;6271893;28;20048;-75
2021/05/13 02:39:08;;;;;;;2.80;2.60;;;6.10;99.90;;;;;;6271915;28;20055;-75
2021/05/13 02:42:09;;;;;;;2.92;2.58;;;6.10;99.90;;;;;;6271505;28;20051;-76
2021/05/13 02:45:12;;;;;;;12.80;5.00;;;6.00;99.90;;;;;;6271599;28;20135;-75
2021/05/13 02:48:13;;;;;;;6.32;2.67;;;6.00;99.90;;;;;;6271485;28;20219;-75
2021/05/13 02:51:15;;;;;;;3.58;3.20;;;6.00;99.90;;;;;;6271776;28;20056;-76
2021/05/13 02:54:17;;;;;;;5.88;2.80;;;6.00;99.90;;;;;;6271117;28;20510;-75
2021/05/13 02:57:18;;;;;;;3.47;2.83;;;5.90;99.90;;;;;;6271417;28;20139;-75
2021/05/13 03:00:26;;;;;;;4.07;3.15;;;5.90;99.90;;;;;;6271058;28;20072;-75
2021/05/13 03:03:27;;;;;;;3.60;3.30;;;5.90;99.90;;;;;;6272149;28;20546;-75
2021/05/13 03:06:29;;;;;;;2.92;2.63;;;5.80;99.90;;;;;;6271145;28;20072;-76
2021/05/13 03:09:32;;;;;;;4.72;2.75;;;5.80;99.90;;;;;;6270939;28;20441;-76
2021/05/13 03:12:34;;;;;;;3.45;3.15;;;5.70;99.90;;;;;;6271455;28;20058;-75
2021/05/13 03:15:35;;;;;;;4.47;2.67;;;5.70;99.90;;;;;;6271065;28;20053;-76
2021/05/13 03:18:36;;;;;;;3.22;2.85;;;5.60;99.90;;;;;;6269697;28;20102;-76
2021/05/13 03:21:40;;;;;;;4.65;3.25;;;5.60;99.90;;;;;;6271075;28;20068;-76
2021/05/13 03:24:47;;;;;;;2.83;2.47;;;5.60;99.90;;;;;;6271323;28;20045;-76
2021/05/13 03:27:50;;;;;;;3.15;2.88;;;5.60;99.90;;;;;;6271596;28;20134;-76
2021/05/13 03:30:52;;;;;;;5.60;2.97;;;5.50;99.90;;;;;;6271217;28;20053;-76
2021/05/13 03:33:53;;;;;;;3.42;2.50;;;5.40;99.90;;;;;;6274875;28;20470;-76
2021/05/13 03:36:54;;;;;;;2.35;2.15;;;5.40;99.90;;;;;;6275831;28;20405;-76
2021/05/13 03:39:57;;;;;;;3.60;2.58;;;5.50;99.90;;;;;;6276259;28;20135;-77
2021/05/13 03:42:58;;;;;;;2.83;2.15;;;5.40;99.90;;;;;;6277829;28;20490;-76
2021/05/13 03:46:00;;;;;;;23.08;5.32;;;5.40;99.90;;;;;;6276752;28;20128;-75
2021/05/13 03:49:01;;;;;;;7.18;3.88;;;5.40;99.90;;;;;;6274988;28;20124;-75
2021/05/13 03:52:02;;;;;;;4.68;2.55;;;5.40;99.90;;;;;;6275206;28;20488;-75
2021/05/13 03:55:06;;;;;;;6.60;3.42;;;5.40;99.90;;;;;;6274926;28;20072;-75
2021/05/13 03:58:09;;;;;;;3.30;3.00;;;5.40;99.90;;;;;;6275263;28;20076;-75
2021/05/13 04:01:12;;;;;;;12.82;2.80;;;5.40;99.90;;;;;;6274531;28;20131;-75
2021/05/13 04:04:13;;;;;;;5.03;2.45;;;5.50;99.90;;;;;;6275053;28;20072;-75
2021/05/13 04:07:14;;;;;;;4.25;3.17;;;5.50;99.90;;;;;;6275277;28;20502;-76
2021/05/13 04:10:17;;;;;;;3.75;2.67;;;5.50;99.90;;;;;;6274787;28;20458;-75
2021/05/13 04:13:18;;;;;;;2.88;2.67;;;5.50;99.90;;;;;;6274588;28;20131;-76
2021/05/13 04:16:26;;;;;;;3.10;2.80;;;5.60;99.90;;;;;;6274371;28;20124;-75
2021/05/13 04:19:27;;;;;;;3.05;2.58;;;5.60;99.90;;;;;;6271438;28;20041;-76
2021/05/13 04:22:29;;;;;;;2.90;2.58;;;5.70;99.90;;;;;;6274359;28;20136;-76
2021/05/13 04:25:31;;;;;;;3.92;2.20;;;5.70;99.90;;;;;;6274379;28;20132;-75
2021/05/13 04:28:32;;;;;;;5.47;2.60;;;5.90;99.90;;;;;;6273856;28;20124;-75
2021/05/13 04:31:34;;;;;;;3.00;2.75;;;6.00;99.90;;;;;;6274633;28;20538;-75
2021/05/13 04:34:35;;;;;;;3.35;1.98;;;6.00;99.90;;;;;;6273867;28;20483;-75
2021/05/13 04:37:36;;;;;;;4.05;2.92;;;6.20;99.90;;;;;;6274303;28;20041;-76
2021/05/13 04:40:38;;;;;;;4.25;2.65;;;6.30;99.90;;;;;;6273599;28;20455;-75
2021/05/13 04:43:40;;;;;;;5.75;3.00;;;6.60;99.90;;;;;;6274775;28;20052;-76
2021/05/13 04:46:41;;;;;;;3.47;2.33;;;6.70;99.90;;;;;;6273536;28;20056;-75
2021/05/13 04:49:42;;;;;;;4.53;3.08;;;7.00;99.90;;;;;;6273769;28;20129;-76
2021/05/13 04:52:44;;;;;;;6.57;5.97;;;7.20;99.90;;;;;;6274040;28;20070;-75
2021/05/13 04:55:46;;;;;;;6.40;5.22;;;7.40;99.90;;;;;;6274041;28;20049;-76
2021/05/13 04:58:48;;;;;;;8.65;6.25;;;7.50;99.90;;;;;;6273140;28;20141;-75
2021/05/13 05:01:50;;;;;;;6.53;5.93;;;7.70;99.90;;;;;;6273457;28;20417;-75
2021/05/13 05:04:51;;;;;;;3.60;3.30;;;7.80;99.90;;;;;;6273367;28;20127;-75
2021/05/13 05:07:52;;;;;;;3.00;2.78;;;7.90;99.90;;;;;;6273224;28;20076;-75
2021/05/13 05:10:55;;;;;;;3.33;3.03;;;8.00;99.90;;;;;;6273514;28;20094;-76
2021/05/13 05:13:56;;;;;;;5.13;2.92;;;8.60;99.90;;;;;;6272819;28;20047;-76
2021/05/13 05:16:57;;;;;;;3.20;2.10;;;8.90;99.90;;;;;;6273340;28;20075;-76
2021/05/13 05:19:59;;;;;;;3.42;2.22;;;8.90;99.90;;;;;;6271208;28;20045;-75
2021/05/13 05:23:00;;;;;;;3.05;2.72;;;9.00;99.90;;;;;;6273915;28;20140;-75
2021/05/13 05:26:02;;;;;;;8.65;3.22;;;9.00;99.90;;;;;;6273185;28;20128;-76
2021/05/13 05:29:04;;;;;;;3.47;3.17;;;9.10;99.90;;;;;;6272779;28;20399;-76
2021/05/13 05:32:06;;;;;;;2.60;2.40;;;9.30;99.90;;;;;;6273005;28;20055;-76
2021/05/13 05:35:08;;;;;;;3.67;2.50;;;9.50;99.90;;;;;;6272871;28;20059;-76
2021/05/13 05:38:09;;;;;;;3.42;3.13;;;9.80;99.90;;;;;;6273328;28;20485;-76
2021/05/13 05:41:12;;;;;;;3.95;2.88;;;10.10;99.80;;;;;;6272491;28;20199;-76
2021/05/13 05:44:14;;;;;;;3.05;2.75;;;10.40;99.00;;;;;;6272868;28;20153;-75
2021/05/13 05:47:16;;;;;;;4.47;2.30;;;10.80;98.40;;;;;;6273479;28;20407;-77
2021/05/13 05:50:18;;;;;;;3.00;2.75;;;11.10;97.10;;;;;;6274349;28;20059;-75
2021/05/13 05:53:20;;;;;;;2.85;2.63;;;11.40;96.40;;;;;;6273039;28;20049;-75
2021/05/13 05:56:22;;;;;;;9.88;3.30;;;11.40;95.10;;;;;;6273430;28;20463;-75
2021/05/13 05:59:23;;;;;;;3.13;2.28;;;11.50;94.70;;;;;;6283726;28;20113;-75
2021/05/13 06:02:25;;;;;;;1.98;1.83;;;11.50;94.00;;;;;;6274521;28;20051;-75
2021/05/13 06:05:27;;;;;;;3.65;2.28;;;11.70;93.90;;;;;;6267431;28;20080;-75
2021/05/13 06:08:28;;;;;;;3.20;1.77;;;12.00;93.00;;;;;;6282062;28;20091;-75
2021/05/13 06:11:30;;;;;;;4.93;4.13;;;12.40;91.80;;;;;;6272186;28;20095;-75
2021/05/13 06:14:32;;;;;;;3.13;2.20;;;12.80;90.50;;;;;;6271772;28;20088;-75
2021/05/13 06:17:33;;;;;;;5.93;2.10;;;13.00;89.00;;;;;;6272447;28;20129;-75
2021/05/13 06:20:36;;;;;;;4.65;2.65;;;13.40;86.70;;;;;;6269782;28;20128;-75
2021/05/13 06:23:37;;;;;;;4.63;2.33;;;13.80;84.00;;;;;;6272421;28;20048;-75
2021/05/13 06:26:39;;;;;;;5.20;2.92;;;14.10;82.50;;;;;;6271780;28;20443;-75
2021/05/13 06:29:41;;;;;;;5.65;2.00;;;14.60;79.40;;;;;;6271330;28;20045;-76
2021/05/13 06:32:42;;;;;;;4.15;1.92;;;15.00;78.50;;;;;;6271705;28;20107;-75
2021/05/13 06:35:44;;;;;;;3.70;1.77;;;15.40;75.80;;;;;;6272175;28;20056;-76
2021/05/13 06:38:46;;;;;;;3.00;1.90;;;15.50;74.00;;;;;;6271115;28;20123;-76
2021/05/13 06:41:48;;;;;;;2.50;1.50;;;15.30;73.00;;;;;;6271619;28;20041;-75
2021/05/13 06:44:51;;;;;;;3.38;2.28;;;15.40;73.30;;;;;;6271536;28;20135;-77
2021/05/13 06:47:52;;;;;;;2.70;1.90;;;15.40;73.70;;;;;;6271791;28;20136;-75
2021/05/13 06:50:54;;;;;;;3.53;2.47;;;15.50;74.00;;;;;;6271894;28;20053;-75
2021/05/13 06:53:55;;;;;;;3.67;2.50;;;15.60;72.70;;;;;;6271301;28;20045;-75
2021/05/13 06:56:58;;;;;;;3.58;2.55;;;15.80;71.90;;;;;;6271654;28;20245;-76
2021/05/13 06:59:59;;;;;;;3.05;1.65;;;16.20;70.20;;;;;;6271444;28;20053;-75
2021/05/13 07:03:01;;;;;;;2.42;1.63;;;16.50;68.70;;;;;;6271882;28;20088;-76
2021/05/13 07:06:02;;;;;;;2.33;1.83;;;16.60;67.80;;;;;;6273140;28;20081;-75
2021/05/13 07:09:05;;;;;;;1.70;1.50;;;16.70;67.90;;;;;;6275856;28;20419;-75
2021/05/13 07:12:08;;;;;;;2.88;1.42;;;16.80;67.50;;;;;;6276234;28;20049;-75
2021/05/13 07:15:10;;;;;;;9.20;2.60;;;17.00;66.70;;;;;;6277017;28;20506;-75
2021/05/13 07:18:13;;;;;;;7.38;2.83;;;17.30;68.40;;;;;;6277261;28;20045;-76
2021/05/13 07:21:14;;;;;;;9.57;1.80;;;17.80;66.90;;;;;;6274866;28;20083;-76
2021/05/13 07:24:15;;;;;;;2.38;1.15;;;18.10;66.60;;;;;;6275585;28;20453;-75
2021/05/13 07:27:20;;;;;;;2.78;1.58;;;18.20;63.20;;;;;;6276126;28;20050;-75
2021/05/13 07:30:21;;;;;;;2.63;1.00;;;18.40;62.50;;;;;;6275847;28;20041;-76
2021/05/13 07:33:23;;;;;;;2.00;1.35;;;18.50;62.00;;;;;;6277096;28;20075;-76
2021/05/13 07:36:24;;;;;;;1.10;1.02;;;18.60;60.30;;;;;;6276164;28;20644;-75
2021/05/13 07:39:26;;;;;;;5.47;1.52;;;18.80;62.30;;;;;;6276336;28;20388;-76
2021/05/13 07:42:28;;;;;;;3.05;1.25;;;19.10;60.30;;;;;;6276000;28;20128;-75
2021/05/13 07:45:30;;;;;;;6.13;1.48;;;19.40;58.80;;;;;;6275352;28;20077;-76
2021/05/13 07:48:32;;;;;;;3.13;1.42;;;19.60;58.80;;;;;;6275893;28;20044;-76
2021/05/13 07:51:33;;;;;;;4.90;1.40;;;19.60;58.50;;;;;;6276123;28;20049;-76
2021/05/13 07:54:35;;;;;;;4.68;1.70;;;19.70;58.10;;;;;;6275192;28;20135;-75
2021/05/13 07:57:37;;;;;;;1.63;1.00;;;19.70;57.80;;;;;;6275284;28;20514;-75
2021/05/13 08:00:39;;;;;;;2.47;1.15;;;19.70;56.30;;;;;;6275526;28;20060;-75
2021/05/13 08:03:41;;;;;;;1.70;1.02;;;19.40;57.00;;;;;;6276268;28;20059;-75
2021/05/13 08:06:44;;;;;;;2.10;0.90;;;19.30;58.10;;;;;;6274879;28;20430;-76
2021/05/13 08:09:45;;;;;;;3.35;1.10;;;19.70;56.80;;;;;;6274981;28;20056;-75
2021/05/13 08:12:47;;;;;;;4.53;1.55;;;20.00;55.20;;;;;;6274812;28;20052;-75
2021/05/13 08:15:49;;;;;;;1.65;1.05;;;20.40;53.70;;;;;;6274688;28;20139;-75
2021/05/13 08:18:50;;;;;;;3.63;1.23;;;20.60;53.70;;;;;;6274198;28;20100;-76
2021/05/13 08:21:51;;;;;;;2.05;1.50;;;20.80;53.60;;;;;;6273700;28;20133;-75
2021/05/13 08:24:53;;;;;;;3.47;1.67;;;21.00;52.40;;;;;;6274608;28;20092;-76
2021/05/13 08:27:55;;;;;;;4.75;1.40;;;21.00;52.90;;;;;;6274521;28;20152;-75
2021/05/13 08:30:56;;;;;;;2.83;1.27;;;21.10;52.90;;;;;;6275013;28;20139;-76
2021/05/13 08:33:57;;;;;;;5.53;1.58;;;21.30;52.10;;;;;;6274049;28;20422;-75
2021/05/13 08:36:59;;;;;;;2.95;1.60;;;21.40;52.50;;;;;;6274387;28;20124;-75
2021/05/13 08:40:01;;;;;;;4.32;2.15;;;21.50;51.50;;;;;;6274180;28;20057;-75
2021/05/13 08:43:03;;;;;;;3.15;1.40;;;21.60;50.20;;;;;;6275427;28;20049;-76
2021/05/13 08:46:04;;;;;;;2.63;1.30;;;21.70;50.50;;;;;;6274356;28;20056;-76
2021/05/13 08:49:06;;;;;;;8.10;1.45;;;21.70;50.00;;;;;;6274394;28;20471;-76
2021/05/13 08:52:08;;;;;;;3.58;1.60;;;21.60;50.50;;;;;;6274665;28;20132;-75
2021/05/13 08:55:11;;;;;;;3.40;1.58;;;21.70;50.40;;;;;;6275301;28;20048;-75
2021/05/13 08:58:14;;;;;;;5.32;2.13;;;21.60;50.90;;;;;;6274245;28;20128;-76
2021/05/13 09:01:16;;;;;;;2.92;2.08;;;21.50;52.20;;;;;;6274132;28;20127;-75
2021/05/13 09:04:17;;;;;;;2.75;1.85;;;21.70;52.40;;;;;;6273903;28;20482;-75
2021/05/13 09:07:21;;;;;;;6.80;1.73;;;21.80;51.40;;;;;;6273967;28;20077;-75
2021/05/13 09:10:23;;;;;;;5.18;2.58;;;22.10;49.90;;;;;;6272976;28;20053;-74
2021/05/13 09:13:28;;;;;;;4.93;1.55;;;22.40;48.40;;;;;;6273389;28;20048;-74
2021/05/13 09:16:35;;;;;;;5.53;1.70;;;22.80;48.10;;;;;;6273213;28;20075;-75
2021/05/13 09:19:36;;;;;;;6.35;2.10;;;23.00;47.80;;;;;;6273412;28;20045;-77
2021/05/13 09:22:37;;;;;;;1.95;1.48;;;23.20;46.60;;;;;;6272429;28;20049;-75
2021/05/13 09:25:39;;;;;;;4.45;1.52;;;23.50;46.70;;;;;;6273252;28;20499;-74
2021/05/13 09:28:43;;;;;;;2.15;1.42;;;23.60;46.60;;;;;;6276020;28;20076;-74
2021/05/13 09:31:46;;;;;;;3.90;1.70;;;23.80;45.30;;;;;;6273630;28;20128;-74
2021/05/13 09:34:48;;;;;;;6.55;1.40;;;24.10;45.00;;;;;;6273074;28;20122;-75
2021/05/13 09:37:51;;;;;;;2.78;1.67;;;24.30;45.00;;;;;;6272669;28;20191;-74
2021/05/13 09:40:52;;;;;;;3.85;2.35;;;24.60;43.50;;;;;;6272769;28;20131;-75
2021/05/13 09:43:55;;;;;;;7.72;2.22;;;24.60;43.60;;;;;;6273084;28;20392;-75
2021/05/13 09:46:56;;;;;;;1.70;1.15;;;24.70;43.10;;;;;;6273640;28;20083;-76
2021/05/13 09:50:05;;;;;;;5.00;1.40;;;24.70;43.70;;;;;;6272133;28;20065;-75
2021/05/13 09:53:06;;;;;;;5.25;1.38;;;25.00;43.80;;;;;;6272009;28;20052;-76
2021/05/13 09:56:24;;;;;;;7.35;1.70;;;24.90;43.50;;;;;;6272172;28;20052;-76
2021/05/13 09:59:28;;;;;;;2.57;1.60;;;24.50;44.50;;;;;;6271483;28;20521;-76
2021/05/13 10:02:29;;;;;;;3.50;2.08;;;24.20;44.70;;;;;;6272466;28;20072;-76
2021/05/13 10:05:30;;;;;;;2.20;1.65;;;23.90;45.40;;;;;;6271517;28;20049;-75
2021/05/13 10:08:32;;;;;;;2.75;1.98;;;23.80;46.20;;;;;;6272362;28;20080;-75
2021/05/13 10:11:34;;;;;;;5.82;1.48;;;23.60;45.50;;;;;;6272115;28;20076;-75
2021/05/13 10:14:36;;;;;;;4.78;1.58;;;23.40;46.10;;;;;;6271902;28;20076;-75
2021/05/13 10:17:41;;;;;;;6.88;1.70;;;22.90;46.30;;;;;;6271803;28;20041;-75
2021/05/13 10:20:43;;;;;;;3.67;1.90;;;22.30;47.00;;;;;;6270998;28;20094;-75
2021/05/13 10:23:44;;;;;;;6.60;2.17;;;22.00;47.60;;;;;;6270912;28;20517;-75
2021/05/13 10:26:48;;;;;;;5.82;1.60;;;21.70;49.00;;;;;;6272833;28;20066;-76
2021/05/13 10:30:00;;;;;;;4.32;2.17;;;21.70;49.80;;;;;;6271707;28;20132;-76
2021/05/13 10:33:09;;;;;;;1.98;1.20;;;21.90;50.80;;;;;;6271318;28;20139;-76
2021/05/13 10:36:15;;;;;;;10.20;1.92;;;22.20;49.40;;;;;;6271859;28;20105;-76
2021/05/13 10:39:16;;;;;;;2.55;1.23;;;22.40;49.70;;;;;;6271739;28;20081;-76
2021/05/13 10:42:29;;;;;;;4.80;1.55;;;22.50;48.60;;;;;;6272086;28;20052;-76
2021/05/13 10:45:36;;;;;;;2.97;1.50;;;22.30;49.00;;;;;;6271421;28;20127;-75
2021/05/13 10:48:39;;;;;;;4.40;1.40;;;22.40;49.00;;;;;;6271101;28;20047;-76
2021/05/13 10:51:41;;;;;;;2.17;1.33;;;22.10;49.70;;;;;;6271635;28;20056;-76
2021/05/13 10:54:47;;;;;;;3.25;1.65;;;21.60;50.00;;;;;;6271224;28;20068;-76
2021/05/13 10:57:50;;;;;;;5.15;2.13;;;21.50;51.10;;;;;;6271148;28;20415;-76
2021/05/13 11:00:53;;;;;;;4.15;1.25;;;21.60;49.50;;;;;;6271055;28;20139;-77
2021/05/13 11:04:39;;;;;;;1.52;1.10;;;21.90;49.10;;;;;;6271016;28;20136;-76
2021/05/13 11:07:41;;;;;;;3.65;0.82;;;21.90;49.30;;;;;;6271704;28;20553;-76
2021/05/13 11:10:56;;;;;;;1.67;0.93;;;21.90;49.10;;;;;;6270719;28;20136;-77
2021/05/13 11:14:11;;;;;;;2.80;0.90;;;21.90;49.00;;;;;;6270870;28;20133;-76
2021/05/13 11:17:13;;;;;;;2.50;1.10;;;22.00;48.60;;;;;;6271045;28;20049;-77
2021/05/13 11:20:20;;;;;;;4.03;1.13;;;21.80;48.90;;;;;;6270501;28;20115;-77
2021/05/13 11:23:24;;;;;;;4.07;1.10;;;21.80;50.00;;;;;;6271399;28;20057;-77
2021/05/13 11:26:28;;;;;;;4.45;1.52;;;21.90;49.40;;;;;;6267184;28;20517;-75
2021/05/13 11:29:43;;;;;;;1.90;0.82;;;21.90;48.30;;;;;;6270086;28;20041;-77
2021/05/13 11:32:46;;;;;;;1.42;0.95;;;21.90;48.30;;;;;;6271384;28;20041;-77
2021/05/13 11:35:47;;;;;;;2.97;0.77;;;21.90;49.20;;;;;;6270594;28;20060;-77
2021/05/13 11:38:51;;;;;;;1.42;0.85;;;22.30;46.40;;;;;;6270726;28;20083;-76
2021/05/13 11:42:00;;;;;;;5.95;1.30;;;22.60;46.60;;;;;;6270257;28;20426;-76
2021/05/13 11:45:02;;;;;;;2.60;0.93;;;22.50;46.80;;;;;;6270884;28;20045;-77
2021/05/13 11:48:21;;;;;;;1.58;1.20;;;22.40;46.70;;;;;;6270552;28;20143;-77
2021/05/13 11:51:23;;;;;;;4.15;0.95;;;22.00;47.60;;;;;;6271254;28;20573;-77
2021/05/13 11:54:25;;;;;;;2.25;1.02;;;21.70;48.10;;;;;;6273711;28;20115;-76
2021/05/13 11:57:26;;;;;;;1.80;0.98;;;21.70;48.30;;;;;;6274929;28;20103;-77
2021/05/13 12:00:28;;;;;;;5.35;1.42;;;21.80;49.00;;;;;;6275028;28;20131;-76
2021/05/13 12:03:30;;;;;;;1.70;1.17;;;22.10;48.30;;;;;;6275593;28;20131;-77
2021/05/13 12:06:47;;;;;;;3.92;1.02;;;22.30;45.10;;;;;;6274959;28;20049;-77
2021/05/13 12:09:49;;;;;;;1.30;0.88;;;22.40;46.90;;;;;;6274315;28;20095;-76
2021/05/13 12:13:02;;;;;;;2.38;1.05;;;22.40;46.20;;;;;;6274534;28;20044;-77
2021/05/13 12:16:04;;;;;;;2.65;1.08;;;22.40;47.70;;;;;;6275104;28;20140;-76
2021/05/13 12:19:09;;;;;;;2.28;0.90;;;22.40;47.00;;;;;;6274289;28;20091;-76
2021/05/13 12:22:13;;;;;;;4.85;1.50;;;22.50;46.10;;;;;;6273977;28;20064;-76
2021/05/13 12:25:15;;;;;;;2.05;1.30;;;22.50;46.00;;;;;;6272931;28;20072;-77
2021/05/13 12:28:17;;;;;;;2.70;1.20;;;22.20;46.40;;;;;;6273614;28;20646;-77
2021/05/13 12:31:27;;;;;;;1.65;0.68;;;21.90;47.70;;;;;;6274210;28;20134;-77
2021/05/13 12:34:34;;;;;;;0.80;0.60;;;21.10;48.80;;;;;;6273997;28;20124;-76
2021/05/13 12:37:37;;;;;;;3.53;1.58;;;20.40;50.50;;;;;;6273887;28;20040;-76
2021/05/13 12:40:39;;;;;;;11.45;2.08;;;19.40;52.50;;;;;;6273529;28;20414;-77
2021/05/13 12:43:40;;;;;;;2.05;0.60;;;19.10;54.60;;;;;;6274516;28;20091;-76
2021/05/13 12:46:43;;;;;;;1.40;1.10;;;18.50;57.90;;;;;;6273879;28;20068;-76
2021/05/13 12:49:45;;;;;;;2.42;0.88;;;17.80;61.20;;;;;;6273562;28;20180;-77
2021/05/13 12:52:50;;;;;;;2.20;0.90;;;17.10;66.40;;;;;;6273373;28;20576;-76
2021/05/13 12:55:52;;;;;;;1.17;1.02;;;16.30;72.00;;;;;;6273546;28;20060;-76
2021/05/13 12:59:17;;;;;;;1.02;0.90;;;15.50;76.10;;;;;;6273773;28;20080;-75
2021/05/13 13:02:24;;;;;;;1.40;0.93;;;14.70;80.10;;;;;;6253634;28;20041;-76
2021/05/13 13:05:26;;;;;;;2.25;1.40;;;14.10;83.10;;;;;;6272822;28;20053;-77
2021/05/13 13:08:41;;;;;;;5.65;1.48;;;13.60;86.30;;;;;;6273228;28;20433;-77
2021/05/13 13:11:42;;;;;;;2.63;1.15;;;13.10;90.00;;;;;;6273261;28;20091;-77
2021/05/13 13:14:46;;;;;;;4.90;2.50;;;12.80;92.70;;;;;;6273333;28;20045;-77
2021/05/13 13:17:59;;;;;;;2.10;1.88;;;12.60;96.90;;;;;;6273133;28;20045;-77
2021/05/13 13:21:12;;;;;;;2.03;1.67;;;12.50;99.90;;;;;;6273380;28;20122;-77
2021/05/13 13:24:18;;;;;;;3.50;1.67;;;12.50;99.90;;;;;;6273042;28;20048;-77
2021/05/13 13:27:19;;;;;;;2.17;1.98;;;12.40;99.90;;;;;;6272070;28;20135;-76
2021/05/13 13:30:22;;;;;;;11.60;2.60;;;12.30;99.90;;;;;;6272506;28;20049;-76
2021/05/13 13:33:24;;;;;;;2.97;1.73;;;12.40;99.90;;;;;;6272899;28;20065;-76
2021/05/13 13:36:26;;;;;;;2.05;1.85;;;12.50;99.90;;;;;;6272900;28;20439;-77
2021/05/13 13:39:28;;;;;;;4.85;3.55;;;12.60;99.90;;;;;;6272955;28;20040;-77
2021/05/13 13:42:30;;;;;;;1.40;1.30;;;12.70;99.90;;;;;;6272818;28;20049;-77
2021/05/13 13:45:32;;;;;;;1.55;1.45;;;12.90;99.90;;;;;;6272882;28;20100;-77
2021/05/13 13:48:33;;;;;;;2.92;1.45;;;13.10;99.90;;;;;;6272203;28;20128;-77
2021/05/13 13:51:35;;;;;;;1.42;1.33;;;13.50;99.90;;;;;;6272899;28;20481;-76
2021/05/13 13:54:37;;;;;;;4.70;1.80;;;13.70;99.90;;;;;;6272168;28;20546;-76
2021/05/13 13:57:39;;;;;;;4.47;2.17;;;14.00;99.90;;;;;;6272181;28;20115;-76
2021/05/13 14:00:40;;;;;;;1.77;1.63;;;14.40;99.90;;;;;;6271683;28;20114;-76
2021/05/13 14:03:42;;;;;;;1.88;1.70;;;14.60;99.90;;;;;;6272370;28;20072;-77
2021/05/13 14:06:44;;;;;;;1.23;1.15;;;14.70;99.90;;;;;;6271671;28;20049;-76
2021/05/13 14:09:45;;;;;;;1.17;1.10;;;14.70;99.90;;;;;;6271691;28;20045;-76
2021/05/13 14:12:47;;;;;;;1.90;1.10;;;14.70;99.90;;;;;;6271899;28;20075;-75
2021/05/13 14:15:52;;;;;;;2.33;1.02;;;14.70;99.90;;;;;;6271242;28;20183;-76
2021/05/13 14:18:53;;;;;;;1.17;0.88;;;14.70;99.90;;;;;;6272152;28;20055;-77
2021/05/13 14:21:55;;;;;;;0.90;0.80;;;14.80;99.90;;;;;;6271678;28;20073;-77
2021/05/13 14:24:57;;;;;;;1.67;1.38;;;14.80;99.90;;;;;;6271766;28;20068;-77
2021/05/13 14:27:58;;;;;;;1.35;1.25;;;14.80;99.90;;;;;;6270499;28;20143;-76
2021/05/13 14:31:00;;;;;;;1.65;0.80;;;15.00;99.90;;;;;;6271303;28;20049;-77
2021/05/13 14:34:01;;;;;;;3.65;1.20;;;15.10;99.90;;;;;;6271474;28;20049;-76
2021/05/13 14:37:03;;;;;;;1.27;1.17;;;15.20;99.90;;;;;;6273059;28;20079;-77
2021/05/13 14:40:06;;;;;;;1.77;1.13;;;15.10;99.90;;;;;;6271683;28;20052;-77
2021/05/13 14:43:09;;;;;;;0.95;0.90;;;15.10;99.90;;;;;;6272332;28;20079;-76
2021/05/13 14:46:10;;;;;;;1.58;0.98;;;15.10;99.90;;;;;;6272526;28;20461;-75
2021/05/13 14:49:13;;;;;;;1.00;0.90;;;15.10;99.90;;;;;;6271131;28;20080;-77
2021/05/13 14:52:15;;;;;;;0.88;0.85;;;15.10;99.90;;;;;;6274415;28;20041;-76
2021/05/13 14:55:17;;;;;;;1.20;1.00;;;15.30;99.90;;;;;;6271908;28;20083;-77
2021/05/13 14:58:18;;;;;;;2.58;0.90;;;15.50;99.40;;;;;;6271542;28;20048;-77
2021/05/13 15:01:23;;;;;;;2.60;0.85;;;15.60;97.70;;;;;;6271564;28;20041;-76
2021/05/13 15:04:24;;;;;;;0.75;0.70;;;15.60;95.80;;;;;;6271921;28;20498;-77
2021/05/13 15:07:26;;;;;;;0.75;0.55;;;15.70;95.10;;;;;;6272353;28;20049;-76
2021/05/13 15:10:27;;;;;;;0.60;0.60;;;15.80;94.10;;;;;;6272128;28;20486;-77
2021/05/13 15:13:29;;;;;;;0.90;0.80;;;16.00;93.50;;;;;;6271787;28;20120;-77
2021/05/13 15:16:31;;;;;;;2.35;0.80;;;16.20;93.50;;;;;;6271230;28;20499;-77
2021/05/13 15:19:32;;;;;;;1.48;0.80;;;16.30;91.80;;;;;;6271396;28;20495;-76
2021/05/13 15:22:34;;;;;;;1.67;0.80;;;16.30;89.90;;;;;;6272001;28;20080;-77
2021/05/13 15:25:38;;;;;;;0.75;0.50;;;16.20;88.30;;;;;;6275542;28;20091;-76
2021/05/13 15:28:39;;;;;;;0.70;0.40;;;16.10;86.40;;;;;;6280735;28;20045;-77
2021/05/13 15:31:40;;;;;;;4.18;1.17;;;15.80;86.40;;;;;;6283909;28;20060;-77
2021/05/13 15:34:42;;;;;;;1.13;0.50;;;15.70;86.70;;;;;;6276583;28;20118;-77
2021/05/13 15:37:44;;;;;;;2.08;0.60;;;15.50;86.10;;;;;;6278271;28;20048;-77
2021/05/13 15:40:45;;;;;;;1.33;0.60;;;15.20;87.20;;;;;;6280389;28;20095;-77
2021/05/13 15:43:47;;;;;;;0.70;0.63;;;15.10;88.20;;;;;;6280490;28;20138;-77
2021/05/13 15:46:49;;;;;;;0.50;0.50;;;15.10;88.50;;;;;;6278452;28;20053;-77
2021/05/13 15:49:50;;;;;;;1.70;0.98;;;15.10;88.20;;;;;;6277788;28;20516;-76
2021/05/13 15:52:52;;;;;;;0.93;0.50;;;15.00;87.50;;;;;;6278418;28;20132;-77
2021/05/13 15:55:55;;;;;;;0.47;0.47;;;15.00;87.90;;;;;;6278519;28;20491;-78